createdAt,value
2023-04-15T00:01:44.895Z,74.90
2023-04-15T00:04:10.919Z,74.69
2023-04-15T00:06:37.650Z,74.70
2023-04-15T00:09:03.667Z,74.64
2023-04-15T00:11:29.943Z,74.67
2023-04-15T00:13:55.857Z,74.77
2023-04-15T00:16:21.824Z,74.80
2023-04-15T00:18:47.766Z,74.89
2023-04-15T00:21:13.799Z,74.87
2023-04-15T00:23:39.902Z,74.81
2023-04-15T00:26:05.758Z,74.93
2023-04-15T00:28:31.805Z,74.81
2023-04-15T00:30:57.771Z,74.80
2023-04-15T00:33:23.829Z,74.69
2023-04-15T00:35:50.370Z,74.60
2023-04-15T00:38:17.163Z,74.61
2023-04-15T00:40:43.323Z,74.51
2023-04-15T00:43:09.451Z,74.35
2023-04-15T00:45:35.375Z,74.29
2023-04-15T00:48:01.819Z,74.24
2023-04-15T00:50:27.764Z,74.39
2023-04-15T00:52:53.680Z,74.55
2023-04-15T00:55:20.331Z,74.52
2023-04-15T00:57:46.384Z,74.33
2023-04-15T01:00:13.024Z,74.46
2023-04-15T01:02:39.166Z,74.74
2023-04-15T01:05:05.590Z,74.74
2023-04-15T01:07:31.597Z,74.74
2023-04-15T01:09:57.972Z,74.72
2023-04-15T01:12:26.843Z,74.64
2023-04-15T01:14:54.277Z,74.67
2023-04-15T01:17:20.835Z,74.57
2023-04-15T01:19:46.925Z,74.52
2023-04-15T01:22:13.493Z,74.51
2023-04-15T01:24:40.267Z,74.50
2023-04-15T01:27:06.216Z,74.62
2023-04-15T01:29:37.594Z,74.56
2023-04-15T01:32:05.153Z,74.51
2023-04-15T01:34:32.123Z,74.34
2023-04-15T01:36:59.068Z,74.24
2023-04-15T01:39:25.205Z,74.16
2023-04-15T01:41:51.645Z,74.26
2023-04-15T01:44:17.560Z,74.33
2023-04-15T01:46:43.577Z,74.20
2023-04-15T01:49:09.922Z,74.24
2023-04-15T01:51:35.774Z,74.34
2023-04-15T01:54:01.736Z,74.27
2023-04-15T01:56:29.226Z,74.33
2023-04-15T01:58:55.104Z,74.42
2023-04-15T02:01:21.475Z,74.27
2023-04-15T02:03:47.915Z,74.26
2023-04-15T02:06:15.289Z,74.06
2023-04-15T02:08:41.351Z,74.00
2023-04-15T02:11:07.560Z,74.01
2023-04-15T02:13:33.578Z,74.01
2023-04-15T02:16:00.073Z,74.00
2023-04-15T02:18:26.535Z,74.00
2023-04-15T02:20:52.671Z,73.97
2023-04-15T02:23:18.578Z,73.90
2023-04-15T02:25:53.822Z,73.91
2023-04-15T02:28:21.205Z,73.84
2023-04-15T02:30:52.422Z,73.83
2023-04-15T02:33:18.501Z,73.80
2023-04-15T02:35:45.132Z,73.88
2023-04-15T02:38:11.472Z,73.81
2023-04-15T02:40:37.476Z,73.80
2023-04-15T02:43:04.722Z,73.93
2023-04-15T02:45:31.025Z,73.71
2023-04-15T02:48:03.347Z,73.72
2023-04-15T02:50:29.938Z,73.81
2023-04-15T02:52:56.044Z,73.90
2023-04-15T02:55:21.985Z,73.97
2023-04-15T02:57:48.192Z,74.00
2023-04-15T03:00:14.412Z,73.91
2023-04-15T03:02:42.796Z,73.84
2023-04-15T03:05:13.552Z,73.91
2023-04-15T03:07:42.671Z,73.88
2023-04-15T03:10:09.981Z,73.72
2023-04-15T03:12:35.944Z,73.62
2023-04-15T03:15:02.941Z,73.78
2023-04-15T03:17:34.023Z,73.71
2023-04-15T03:20:05.277Z,73.60
2023-04-15T03:22:32.545Z,73.57
2023-04-15T03:24:58.662Z,73.39
2023-04-15T03:27:25.219Z,73.58
2023-04-15T03:29:52.073Z,73.56
2023-04-15T03:32:18.875Z,73.40
2023-04-15T03:34:44.926Z,73.38
2023-04-15T03:37:11.204Z,73.24
2023-04-15T03:39:37.030Z,73.13
2023-04-15T03:42:03.134Z,73.13
2023-04-15T03:44:29.862Z,73.09
2023-04-15T03:46:55.978Z,72.97
2023-04-15T03:49:22.532Z,72.89
2023-04-15T03:51:48.328Z,72.92
2023-04-15T03:54:14.619Z,72.73
2023-04-15T03:56:40.651Z,72.62
2023-04-15T03:59:06.573Z,72.50
2023-04-15T04:01:32.486Z,72.52
2023-04-15T04:03:58.440Z,72.68
2023-04-15T04:06:24.520Z,72.59
2023-04-15T04:08:50.361Z,72.53
2023-04-15T04:11:16.640Z,72.40
2023-04-15T04:13:42.503Z,72.36
2023-04-15T04:16:08.549Z,72.21
2023-04-15T04:18:34.680Z,72.13
2023-04-15T04:21:00.851Z,72.12
2023-04-15T04:23:26.802Z,72.06
2023-04-15T04:25:52.864Z,71.99
2023-04-15T04:28:18.736Z,71.98
2023-04-15T04:30:44.833Z,71.81
2023-04-15T04:33:10.984Z,71.84
2023-04-15T04:35:37.083Z,71.99
2023-04-15T04:38:03.727Z,71.96
2023-04-15T04:40:30.150Z,71.75
2023-04-15T04:42:55.993Z,71.67
2023-04-15T04:45:22.002Z,71.50
2023-04-15T04:47:48.052Z,71.37
2023-04-15T04:50:14.016Z,71.38
2023-04-15T04:52:39.924Z,71.33
2023-04-15T04:55:08.096Z,71.18
2023-04-15T04:57:38.783Z,71.19
2023-04-15T05:00:07.873Z,71.22
2023-04-15T05:02:34.706Z,71.18
2023-04-15T05:05:00.793Z,71.09
2023-04-15T05:07:26.754Z,70.93
2023-04-15T05:09:52.827Z,70.82
2023-04-15T05:12:18.766Z,70.62
2023-04-15T05:14:46.045Z,70.45
2023-04-15T05:17:12.185Z,70.22
2023-04-15T05:19:38.032Z,70.33
2023-04-15T05:22:03.919Z,70.13
2023-04-15T05:24:30.089Z,69.78
2023-04-15T05:26:56.462Z,69.72
2023-04-15T05:29:22.422Z,69.50
2023-04-15T05:31:48.387Z,69.40
2023-04-15T05:34:16.079Z,69.26
2023-04-15T05:36:42.023Z,69.01
2023-04-15T05:39:08.373Z,68.89
2023-04-15T05:41:34.226Z,68.88
2023-04-15T05:44:00.703Z,68.66
2023-04-15T05:46:26.820Z,68.50
2023-04-15T05:48:54.658Z,68.29
2023-04-15T05:51:21.473Z,68.23
2023-04-15T05:53:47.432Z,67.90
2023-04-15T05:56:13.485Z,67.67
2023-04-15T05:58:39.429Z,67.49
2023-04-15T06:01:05.811Z,67.33
2023-04-15T06:03:31.901Z,67.13
2023-04-15T06:05:58.149Z,66.84
2023-04-15T06:08:24.026Z,66.81
2023-04-15T06:10:50.382Z,66.79
2023-04-15T06:13:16.483Z,66.43
2023-04-15T06:15:42.513Z,66.08
2023-04-15T06:18:08.427Z,66.05
2023-04-15T06:20:34.323Z,65.86
2023-04-15T06:23:00.375Z,65.80
2023-04-15T06:25:26.220Z,65.64
2023-04-15T06:27:52.147Z,65.56
2023-04-15T06:30:18.247Z,65.40
2023-04-15T06:32:44.275Z,65.22
2023-04-15T06:35:11.206Z,65.02
2023-04-15T06:37:37.165Z,64.95
2023-04-15T06:40:04.468Z,64.99
2023-04-15T06:42:30.946Z,64.63
2023-04-15T06:44:56.791Z,64.74
2023-04-15T06:47:22.690Z,64.39
2023-04-15T06:49:48.563Z,64.21
2023-04-15T06:52:15.882Z,63.81
2023-04-15T06:54:42.942Z,63.45
2023-04-15T06:57:09.051Z,63.15
2023-04-15T06:59:35.560Z,63.15
2023-04-15T07:02:02.017Z,63.27
2023-04-15T07:04:28.076Z,63.07
2023-04-15T07:06:54.948Z,62.78
2023-04-15T07:09:24.218Z,62.40
2023-04-15T07:11:50.794Z,61.62
2023-04-15T07:14:17.024Z,61.87
2023-04-15T07:16:42.940Z,61.64
2023-04-15T07:19:08.882Z,60.92
2023-04-15T07:21:34.750Z,60.57
2023-04-15T07:24:00.663Z,59.99
2023-04-15T07:26:26.583Z,59.38
2023-04-15T07:28:52.540Z,59.15
2023-04-15T07:31:18.594Z,58.58
2023-04-15T07:33:44.834Z,58.23
2023-04-15T07:36:10.714Z,57.56
2023-04-15T07:38:36.888Z,57.06
2023-04-15T07:41:03.491Z,56.50
2023-04-15T07:43:29.392Z,56.24
2023-04-15T07:45:55.357Z,54.74
2023-04-15T07:48:21.382Z,55.66
2023-04-15T07:50:47.789Z,55.39
2023-04-15T07:53:13.951Z,54.35
2023-04-15T07:55:39.841Z,53.70
2023-04-15T07:58:05.841Z,53.55
2023-04-15T08:00:31.657Z,52.81
2023-04-15T08:02:59.036Z,51.93
2023-04-15T08:05:25.236Z,50.33
2023-04-15T08:07:51.170Z,50.31
2023-04-15T08:10:17.394Z,49.23
2023-04-15T08:12:43.366Z,47.42
2023-04-15T08:15:09.863Z,46.80
2023-04-15T08:17:35.767Z,45.76
2023-04-15T08:20:03.241Z,45.13
2023-04-15T08:22:29.137Z,45.56
2023-04-15T08:24:55.078Z,45.50
2023-04-15T08:27:21.334Z,45.63
2023-04-15T08:29:47.236Z,45.37
2023-04-15T08:32:13.150Z,45.42
2023-04-15T08:34:39.078Z,44.89
2023-04-15T08:37:05.830Z,44.69
2023-04-15T08:39:31.691Z,44.47
2023-04-15T08:42:02.776Z,43.67
2023-04-15T08:44:33.064Z,44.29
2023-04-15T08:47:05.364Z,44.39
2023-04-15T08:49:32.315Z,44.04
2023-04-15T08:51:59.804Z,43.75
2023-04-15T08:54:27.646Z,45.06
2023-04-15T08:56:53.847Z,45.62
2023-04-15T08:59:21.482Z,45.48
2023-04-15T09:01:50.572Z,45.99
2023-04-15T09:04:16.899Z,46.22
2023-04-15T09:06:42.888Z,46.31
2023-04-15T09:09:08.965Z,46.53
2023-04-15T09:11:35.633Z,46.37
2023-04-15T09:14:01.656Z,46.46
2023-04-15T09:16:27.732Z,46.73
2023-04-15T09:18:53.695Z,47.25
2023-04-15T09:21:20.195Z,46.89
2023-04-15T09:24:01.201Z,46.46
2023-04-15T09:26:37.350Z,46.06
2023-04-15T09:29:14.125Z,46.66
2023-04-15T09:31:42.216Z,45.92
2023-04-15T09:34:08.129Z,46.60
2023-04-15T09:36:46.372Z,47.24
2023-04-15T09:39:13.441Z,47.85
2023-04-15T09:41:40.271Z,47.51
2023-04-15T09:44:06.357Z,47.02
2023-04-15T09:46:43.250Z,47.24
2023-04-15T09:49:11.591Z,47.64
2023-04-15T09:51:38.543Z,47.69
2023-04-15T09:54:04.975Z,47.06
2023-04-15T09:56:41.623Z,46.59
2023-04-15T09:59:08.766Z,46.42
2023-04-15T10:01:36.235Z,47.05
2023-04-15T10:04:04.994Z,47.23
2023-04-15T10:06:31.532Z,47.62
2023-04-15T10:08:59.134Z,47.30
2023-04-15T10:11:29.756Z,47.99
2023-04-15T10:13:57.162Z,47.58
2023-04-15T10:16:28.003Z,47.82
2023-04-15T10:19:00.918Z,47.61
2023-04-15T10:21:27.811Z,46.78
2023-04-15T10:23:53.890Z,47.20
2023-04-15T10:26:20.808Z,47.87
2023-04-15T10:28:47.853Z,47.51
2023-04-15T10:31:15.058Z,47.64
2023-04-15T10:33:43.031Z,47.48
2023-04-15T10:36:09.810Z,47.87
2023-04-15T10:38:42.755Z,48.06
2023-04-15T10:41:30.355Z,48.00
2023-04-15T10:44:04.178Z,48.10
2023-04-15T10:46:45.021Z,47.69
2023-04-15T10:49:18.462Z,48.26
2023-04-15T10:51:50.871Z,48.45
2023-04-15T10:54:32.416Z,48.47
2023-04-15T10:57:02.189Z,47.99
2023-04-15T10:59:52.032Z,47.44
2023-04-15T11:02:17.948Z,47.85
2023-04-15T11:04:57.246Z,48.31
2023-04-15T11:07:54.997Z,48.20
2023-04-15T11:10:30.370Z,47.77
2023-04-15T11:12:59.256Z,48.38
2023-04-15T11:15:46.705Z,48.45
2023-04-15T11:18:27.896Z,48.16
2023-04-15T11:21:00.500Z,48.34
2023-04-15T11:23:40.844Z,48.59
2023-04-15T11:26:11.013Z,49.22
2023-04-15T11:28:42.941Z,49.31
2023-04-15T11:31:15.772Z,49.38
2023-04-15T11:34:00.692Z,49.94
2023-04-15T11:36:29.034Z,50.34
2023-04-15T11:38:57.656Z,50.64
2023-04-15T11:41:23.856Z,50.63
2023-04-15T11:43:51.496Z,51.04
2023-04-15T11:46:18.510Z,51.25
2023-04-15T11:48:46.424Z,51.29
2023-04-15T11:51:13.856Z,50.97
2023-04-15T11:53:48.128Z,51.09
2023-04-15T11:56:23.143Z,51.16
2023-04-15T11:58:56.337Z,51.24
2023-04-15T12:01:43.043Z,51.33
2023-04-15T12:04:22.259Z,51.57
2023-04-15T12:06:50.416Z,50.96
2023-04-15T12:09:16.774Z,50.94
2023-04-15T12:11:47.684Z,51.05
2023-04-15T12:14:25.281Z,51.16
2023-04-15T12:16:58.377Z,50.87
2023-04-15T12:19:39.696Z,50.52
2023-04-15T12:22:10.460Z,50.10
2023-04-15T12:24:38.280Z,49.55
2023-04-15T12:27:10.577Z,49.85
2023-04-15T12:29:39.050Z,50.24
2023-04-15T12:32:12.679Z,50.03
2023-04-15T12:34:41.556Z,50.15
2023-04-15T12:37:11.182Z,49.83
2023-04-15T12:39:40.429Z,49.43
2023-04-15T12:42:08.185Z,48.81
2023-04-15T12:44:36.236Z,47.26
2023-04-15T12:47:03.007Z,47.99
2023-04-15T12:49:30.425Z,47.19
2023-04-15T12:52:01.535Z,47.24
2023-04-15T12:54:29.599Z,46.12
2023-04-15T12:56:56.569Z,45.54
2023-04-15T12:59:23.278Z,45.72
2023-04-15T13:01:51.372Z,45.93
2023-04-15T13:04:19.192Z,46.11
2023-04-15T13:06:45.611Z,45.73
2023-04-15T13:09:11.575Z,45.44
2023-04-15T13:11:37.571Z,45.85
2023-04-15T13:14:07.682Z,45.38
2023-04-15T13:16:34.519Z,44.86
2023-04-15T13:19:02.285Z,44.43
2023-04-15T13:21:28.978Z,44.84
2023-04-15T13:23:55.350Z,45.34
2023-04-15T13:26:21.494Z,45.81
2023-04-15T13:28:47.605Z,46.13
2023-04-15T13:31:13.533Z,46.34
2023-04-15T13:33:39.742Z,46.74
2023-04-15T13:36:06.234Z,47.02
2023-04-15T13:38:32.644Z,47.32
2023-04-15T13:40:58.632Z,47.65
2023-04-15T13:43:24.736Z,48.11
2023-04-15T13:45:50.645Z,48.58
2023-04-15T13:48:16.573Z,48.79
2023-04-15T13:50:44.778Z,49.55
2023-04-15T13:53:11.963Z,50.14
2023-04-15T13:55:41.084Z,50.70
2023-04-15T13:58:08.525Z,51.51
2023-04-15T14:00:34.439Z,52.07
2023-04-15T14:03:00.692Z,52.00
2023-04-15T14:05:26.903Z,52.57
2023-04-15T14:07:52.958Z,51.88
2023-04-15T14:10:18.837Z,51.65
2023-04-15T14:12:44.887Z,51.93
2023-04-15T14:15:10.913Z,52.12
2023-04-15T14:17:36.980Z,51.85
2023-04-15T14:20:03.548Z,51.75
2023-04-15T14:22:29.523Z,51.58
2023-04-15T14:24:55.569Z,51.13
2023-04-15T14:27:22.043Z,50.03
2023-04-15T14:29:48.163Z,49.49
2023-04-15T14:32:15.640Z,49.51
2023-04-15T14:34:43.192Z,48.72
2023-04-15T14:37:09.297Z,48.86
2023-04-15T14:39:35.255Z,48.73
2023-04-15T14:42:01.169Z,49.02
2023-04-15T14:44:27.057Z,49.12
2023-04-15T14:46:53.904Z,49.10
2023-04-15T14:49:20.182Z,49.06
2023-04-15T14:51:46.107Z,49.31
2023-04-15T14:54:12.070Z,49.67
2023-04-15T14:56:37.997Z,50.12
2023-04-15T14:59:04.063Z,50.43
2023-04-15T15:01:30.311Z,50.40
2023-04-15T15:03:56.343Z,50.51
2023-04-15T15:06:22.421Z,51.42
2023-04-15T15:08:48.828Z,52.98
2023-04-15T15:11:16.375Z,54.05
2023-04-15T15:13:42.412Z,55.01
2023-04-15T15:16:08.450Z,56.08
2023-04-15T15:18:35.472Z,56.63
2023-04-15T15:21:01.460Z,57.68
2023-04-15T15:23:27.368Z,58.27
2023-04-15T15:25:53.396Z,58.87
2023-04-15T15:28:21.033Z,59.65
2023-04-15T15:30:47.507Z,60.11
2023-04-15T15:33:13.515Z,60.47
2023-04-15T15:35:40.257Z,60.77
2023-04-15T15:38:06.346Z,61.07
2023-04-15T15:40:32.512Z,61.14
2023-04-15T15:42:58.400Z,61.30
2023-04-15T15:45:24.363Z,61.44
2023-04-15T15:47:51.053Z,62.38
2023-04-15T15:50:17.192Z,62.51
2023-04-15T15:52:43.447Z,62.40
2023-04-15T15:55:09.554Z,62.70
2023-04-15T15:57:36.048Z,62.66
2023-04-15T16:02:59.729Z,62.47
2023-04-15T16:05:18.321Z,62.74
2023-04-15T16:07:44.452Z,62.97
2023-04-15T16:10:11.818Z,63.24
2023-04-15T16:12:37.828Z,62.91
2023-04-15T16:15:04.742Z,63.09
2023-04-15T16:17:31.524Z,63.07
2023-04-15T16:20:00.835Z,63.16
2023-04-15T16:22:27.286Z,63.00
2023-04-15T16:24:53.330Z,63.02
2023-04-15T16:27:19.246Z,62.98
2023-04-15T16:29:45.286Z,62.89
2023-04-15T16:32:11.234Z,62.77
2023-04-15T16:34:38.561Z,63.03
2023-04-15T16:37:04.772Z,62.92
2023-04-15T16:39:30.745Z,62.97
2023-04-15T16:41:57.264Z,62.90
2023-04-15T16:44:23.849Z,63.13
2023-04-15T16:46:49.770Z,63.37
2023-04-15T16:49:15.771Z,63.25
2023-04-15T16:51:41.704Z,62.47
2023-04-15T16:54:08.144Z,62.33
2023-04-15T16:56:34.010Z,62.59
2023-04-15T16:59:00.103Z,62.69
2023-04-15T17:01:26.083Z,62.70
2023-04-15T17:03:54.092Z,62.99
2023-04-15T17:06:22.130Z,62.92
2023-04-15T17:08:48.128Z,63.47
2023-04-15T17:11:14.894Z,63.89
2023-04-15T17:13:40.817Z,64.09
2023-04-15T17:16:07.125Z,64.12
2023-04-15T17:18:33.041Z,64.48
2023-04-15T17:21:00.253Z,64.68
2023-04-15T17:23:26.713Z,64.91
2023-04-15T17:25:53.264Z,64.75
2023-04-15T17:28:19.118Z,64.90
2023-04-15T17:30:45.211Z,65.71
2023-04-15T17:33:55.952Z,66.07
2023-04-15T17:35:57.828Z,66.43
2023-04-15T17:38:23.774Z,66.40
2023-04-15T17:40:49.964Z,66.70
2023-04-15T17:43:15.849Z,66.84
2023-04-15T17:45:42.673Z,67.10
2023-04-15T17:48:08.650Z,67.08
2023-04-15T17:50:34.822Z,67.35
2023-04-15T17:53:00.663Z,67.80
2023-04-15T17:55:26.710Z,67.76
2023-04-15T17:57:52.620Z,67.62
2023-04-15T18:00:18.572Z,67.78
2023-04-15T18:02:44.655Z,67.82
2023-04-15T18:05:10.950Z,67.92
2023-04-15T18:07:37.022Z,68.43
2023-04-15T18:10:03.323Z,68.23
2023-04-15T18:12:29.321Z,68.54
2023-04-15T18:14:55.353Z,68.42
2023-04-15T18:17:21.350Z,68.50
2023-04-15T18:19:47.283Z,68.47
2023-04-15T18:22:13.196Z,68.45
2023-04-15T18:24:39.092Z,68.63
2023-04-15T18:27:05.054Z,69.14
2023-04-15T18:29:31.052Z,69.11
2023-04-15T18:31:59.393Z,69.29
2023-04-15T18:34:25.584Z,69.13
2023-04-15T18:36:51.577Z,69.23
2023-04-15T18:39:17.674Z,69.37
2023-04-15T18:41:43.563Z,69.19
2023-04-15T18:44:09.520Z,69.18
2023-04-15T18:46:35.526Z,69.36
2023-04-15T18:49:02.164Z,69.67
2023-04-15T18:51:28.648Z,69.90
2023-04-15T18:53:55.053Z,69.85
2023-04-15T18:56:20.996Z,69.81
2023-04-15T18:59:09.992Z,69.60
2023-04-15T19:01:32.884Z,69.70
2023-04-15T19:03:58.802Z,69.61
2023-04-15T19:06:26.603Z,69.79
2023-04-15T19:08:52.665Z,70.32
2023-04-15T19:11:18.510Z,70.48
2023-04-15T19:13:44.584Z,70.30
2023-04-15T19:16:10.466Z,69.91
2023-04-15T19:18:36.429Z,69.81
2023-04-15T19:21:03.416Z,69.91
2023-04-15T19:23:31.209Z,69.87
2023-04-15T19:25:58.124Z,69.80
2023-04-15T19:28:24.680Z,69.87
2023-04-15T19:30:51.935Z,70.06
2023-04-15T19:33:17.816Z,70.20
2023-04-15T19:35:43.996Z,70.55
2023-04-15T19:38:09.975Z,70.71
2023-04-15T19:40:35.850Z,70.47
2023-04-15T19:43:01.685Z,70.56
2023-04-15T19:45:27.639Z,70.58
2023-04-15T19:47:53.693Z,70.68
2023-04-15T19:50:23.880Z,70.92
2023-04-15T19:52:49.838Z,70.88
2023-04-15T19:55:16.003Z,70.88
2023-04-15T19:57:41.903Z,70.97
2023-04-15T20:00:08.659Z,71.18
2023-04-15T20:02:34.849Z,71.36
2023-04-15T20:05:00.797Z,71.32
2023-04-15T20:07:27.060Z,71.22
2023-04-15T20:09:53.244Z,71.30
2023-04-15T20:12:51.301Z,71.31
2023-04-15T20:15:07.534Z,71.32
2023-04-15T20:17:33.582Z,71.46
2023-04-15T20:19:59.559Z,71.56
2023-04-15T20:22:25.623Z,71.78
2023-04-15T20:24:51.628Z,71.88
2023-04-15T20:27:17.611Z,72.27
2023-04-15T20:29:43.570Z,72.41
2023-04-15T20:32:10.841Z,72.68
2023-04-15T20:34:39.850Z,73.13
2023-04-15T20:37:07.028Z,73.31
2023-04-15T20:39:33.390Z,73.60
2023-04-15T20:41:59.333Z,73.77
2023-04-15T20:44:25.906Z,74.23
2023-04-15T20:46:51.883Z,74.25
2023-04-15T20:49:17.871Z,74.37
2023-04-15T20:51:43.743Z,74.60
2023-04-15T20:54:10.248Z,74.87
2023-04-15T20:56:36.136Z,74.87
2023-04-15T20:59:02.424Z,74.87
2023-04-15T21:01:28.536Z,74.72
2023-04-15T21:03:54.657Z,74.83
2023-04-15T21:06:20.644Z,75.02
2023-04-15T21:08:46.465Z,75.51
2023-04-15T21:11:14.808Z,75.25
2023-04-15T21:13:46.948Z,75.22
2023-04-15T21:16:12.875Z,75.17
2023-04-15T21:18:38.774Z,75.27
2023-04-15T21:21:05.382Z,75.15
2023-04-15T21:23:35.154Z,75.09
2023-04-15T21:26:01.633Z,74.84
2023-04-15T21:28:29.274Z,75.04
2023-04-15T21:30:56.438Z,75.23
2023-04-15T21:33:23.632Z,75.54
2023-04-15T21:35:49.795Z,75.36
2023-04-15T21:38:15.651Z,75.09
2023-04-15T21:40:41.566Z,75.17
2023-04-15T21:43:07.801Z,75.24
2023-04-15T21:45:35.220Z,75.08
2023-04-15T21:48:07.831Z,75.11
2023-04-15T21:50:37.447Z,75.26
2023-04-15T21:53:06.152Z,75.12
2023-04-15T21:55:32.076Z,75.08
2023-04-15T21:57:58.019Z,75.34
2023-04-15T22:00:24.102Z,75.51
2023-04-15T22:02:50.731Z,75.51
2023-04-15T22:05:16.839Z,75.68
2023-04-15T22:07:43.382Z,75.68
2023-04-15T22:10:10.039Z,75.70
2023-04-15T22:12:35.956Z,75.70
2023-04-15T22:15:03.781Z,75.84
2023-04-15T22:17:30.058Z,76.02
2023-04-15T22:19:56.038Z,76.19
2023-04-15T22:22:21.880Z,76.16
2023-04-15T22:25:01.476Z,76.17
2023-04-15T22:27:27.364Z,76.32
2023-04-15T22:29:53.764Z,76.35
2023-04-15T22:32:19.649Z,76.00
2023-04-15T22:34:45.595Z,75.88
2023-04-15T22:37:11.554Z,75.72
2023-04-15T22:39:37.413Z,75.84
2023-04-15T22:42:03.278Z,75.86
2023-04-15T22:44:29.181Z,75.89
2023-04-15T22:46:55.033Z,75.63
2023-04-15T22:49:20.906Z,75.53
2023-04-15T22:51:46.780Z,75.54
2023-04-15T22:54:12.657Z,75.56
2023-04-15T22:56:38.554Z,75.54
2023-04-15T22:59:04.480Z,75.52
2023-04-15T23:01:31.343Z,75.55
2023-04-15T23:04:07.037Z,75.61
2023-04-15T23:06:43.208Z,75.79
2023-04-15T23:09:09.270Z,75.88
2023-04-15T23:11:35.440Z,75.87
2023-04-15T23:14:01.359Z,75.79
2023-04-15T23:16:27.343Z,75.90
2023-04-15T23:18:53.679Z,75.90
2023-04-15T23:21:20.148Z,76.12
2023-04-15T23:23:46.036Z,76.14
2023-04-15T23:26:11.893Z,76.21
2023-04-15T23:28:37.773Z,76.00
2023-04-15T23:31:03.818Z,75.82
2023-04-15T23:33:31.864Z,75.82
2023-04-15T23:35:58.053Z,75.84
2023-04-15T23:38:23.957Z,75.66
2023-04-15T23:40:50.582Z,75.42
2023-04-15T23:43:16.520Z,75.47
2023-04-15T23:45:42.424Z,75.40
2023-04-15T23:48:08.397Z,75.55
2023-04-15T23:50:34.470Z,75.71
2023-04-15T23:53:00.349Z,75.82
2023-04-15T23:55:26.257Z,75.60
2023-04-15T23:57:52.150Z,75.60
